sensor_id;sensor_type;location;lat;lon;timestamp;temperature;humidity
31046;DHT22;17711;54.018;9.300;2023-01-19T00:02:07;2.50;99.90
31046;DHT22;17711;54.018;9.300;2023-01-19T00:04:36;2.50;99.90
31046;DHT22;17711;54.018;9.300;2023-01-19T00:07:06;2.50;99.90
31046;DHT22;17711;54.018;9.300;2023-01-19T00:09:34;2.50;99.90
31046;DHT22;17711;54.018;9.300;2023-01-19T00:12:05;2.60;99.90
31046;DHT22;17711;54.018;9.300;2023-01-19T00:14:33;2.50;99.90
31046;DHT22;17711;54.018;9.300;2023-01-19T00:17:02;2.60;99.90
31046;DHT22;17711;54.018;9.300;2023-01-19T00:19:31;2.60;99.90
31046;DHT22;17711;54.018;9.300;2023-01-19T00:21:59;2.60;99.90
31046;DHT22;17711;54.018;9.300;2023-01-19T00:24:30;2.70;99.90
31046;DHT22;17711;54.018;9.300;2023-01-19T00:26:59;2.70;99.90
31046;DHT22;17711;54.018;9.300;2023-01-19T00:29:29;2.70;99.90
31046;DHT22;17711;54.018;9.300;2023-01-19T00:31:59;2.70;99.90
31046;DHT22;17711;54.018;9.300;2023-01-19T00:34:28;2.70;99.90
31046;DHT22;17711;54.018;9.300;2023-01-19T00:37:03;2.70;99.90
31046;DHT22;17711;54.018;9.300;2023-01-19T00:39:33;2.70;99.90
31046;DHT22;17711;54.018;9.300;2023-01-19T00:42:01;2.70;99.90
31046;DHT22;17711;54.018;9.300;2023-01-19T00:44:48;2.70;99.90
31046;DHT22;17711;54.018;9.300;2023-01-19T00:47:16;2.80;99.90
31046;DHT22;17711;54.018;9.300;2023-01-19T00:49:45;2.80;99.90
31046;DHT22;17711;54.018;9.300;2023-01-19T00:52:14;2.80;99.90
31046;DHT22;17711;54.018;9.300;2023-01-19T00:54:44;2.80;99.90
31046;DHT22;17711;54.018;9.300;2023-01-19T00:57:14;2.80;99.90
31046;DHT22;17711;54.018;9.300;2023-01-19T00:59:42;2.80;99.90
31046;DHT22;17711;54.018;9.300;2023-01-19T01:02:11;2.80;99.90
31046;DHT22;17711;54.018;9.300;2023-01-19T01:04:40;2.90;99.90
31046;DHT22;17711;54.018;9.300;2023-01-19T01:07:09;2.90;99.90
31046;DHT22;17711;54.018;9.300;2023-01-19T01:09:37;2.90;99.90
31046;DHT22;17711;54.018;9.300;2023-01-19T01:12:08;2.90;99.90
31046;DHT22;17711;54.018;9.300;2023-01-19T01:14:36;2.90;99.90
31046;DHT22;17711;54.018;9.300;2023-01-19T01:17:05;3.00;99.90
31046;DHT22;17711;54.018;9.300;2023-01-19T01:19:37;3.00;99.90
31046;DHT22;17711;54.018;9.300;2023-01-19T01:22:06;3.00;99.90
31046;DHT22;17711;54.018;9.300;2023-01-19T01:24:35;3.10;99.90
31046;DHT22;17711;54.018;9.300;2023-01-19T01:27:04;3.10;99.90
31046;DHT22;17711;54.018;9.300;2023-01-19T01:29:34;3.10;99.90
31046;DHT22;17711;54.018;9.300;2023-01-19T01:32:03;3.10;99.90
31046;DHT22;17711;54.018;9.300;2023-01-19T01:34:32;3.20;99.90
31046;DHT22;17711;54.018;9.300;2023-01-19T01:37:00;3.20;99.90
31046;DHT22;17711;54.018;9.300;2023-01-19T01:39:29;3.20;99.90
31046;DHT22;17711;54.018;9.300;2023-01-19T01:41:57;3.20;99.90
31046;DHT22;17711;54.018;9.300;2023-01-19T01:44:47;3.30;99.90
31046;DHT22;17711;54.018;9.300;2023-01-19T01:47:21;3.30;99.90
31046;DHT22;17711;54.018;9.300;2023-01-19T01:49:53;3.30;99.90
31046;DHT22;17711;54.018;9.300;2023-01-19T01:52:24;3.30;99.90
31046;DHT22;17711;54.018;9.300;2023-01-19T01:54:55;3.30;99.90
31046;DHT22;17711;54.018;9.300;2023-01-19T01:57:24;3.30;99.90
31046;DHT22;17711;54.018;9.300;2023-01-19T01:59:56;3.30;99.90
31046;DHT22;17711;54.018;9.300;2023-01-19T02:02:27;3.30;99.90
31046;DHT22;17711;54.018;9.300;2023-01-19T02:05:17;3.30;99.90
31046;DHT22;17711;54.018;9.300;2023-01-19T02:07:53;3.30;99.90
31046;DHT22;17711;54.018;9.300;2023-01-19T02:10:40;3.30;99.90
31046;DHT22;17711;54.018;9.300;2023-01-19T02:13:28;3.30;99.90
31046;DHT22;17711;54.018;9.300;2023-01-19T02:16:01;3.30;99.90
31046;DHT22;17711;54.018;9.300;2023-01-19T02:18:33;3.30;99.90
31046;DHT22;17711;54.018;9.300;2023-01-19T02:21:09;3.30;99.90
31046;DHT22;17711;54.018;9.300;2023-01-19T02:23:41;3.30;99.90
31046;DHT22;17711;54.018;9.300;2023-01-19T02:26:13;3.30;99.90
31046;DHT22;17711;54.018;9.300;2023-01-19T02:28:44;3.40;99.90
31046;DHT22;17711;54.018;9.300;2023-01-19T02:31:14;3.40;99.90
31046;DHT22;17711;54.018;9.300;2023-01-19T02:33:43;3.40;99.90
31046;DHT22;17711;54.018;9.300;2023-01-19T02:36:14;3.40;99.90
31046;DHT22;17711;54.018;9.300;2023-01-19T02:38:46;3.40;99.90
31046;DHT22;17711;54.018;9.300;2023-01-19T02:41:17;3.40;99.90
31046;DHT22;17711;54.018;9.300;2023-01-19T02:43:47;3.40;99.90
31046;DHT22;17711;54.018;9.300;2023-01-19T02:46:16;3.40;99.90
31046;DHT22;17711;54.018;9.300;2023-01-19T02:48:45;3.40;99.90
31046;DHT22;17711;54.018;9.300;2023-01-19T02:51:15;3.50;99.90
31046;DHT22;17711;54.018;9.300;2023-01-19T02:54:12;3.50;99.90
31046;DHT22;17711;54.018;9.300;2023-01-19T02:56:52;3.50;99.90
31046;DHT22;17711;54.018;9.300;2023-01-19T02:59:30;3.50;99.90
31046;DHT22;17711;54.018;9.300;2023-01-19T03:02:17;3.50;99.90
31046;DHT22;17711;54.018;9.300;2023-01-19T03:04:58;3.50;99.90
31046;DHT22;17711;54.018;9.300;2023-01-19T03:07:36;3.50;99.90
31046;DHT22;17711;54.018;9.300;2023-01-19T03:10:16;3.60;99.90
31046;DHT22;17711;54.018;9.300;2023-01-19T03:12:49;3.60;99.90
31046;DHT22;17711;54.018;9.300;2023-01-19T03:15:23;3.60;99.90
31046;DHT22;17711;54.018;9.300;2023-01-19T03:17:53;3.60;99.90
31046;DHT22;17711;54.018;9.300;2023-01-19T03:20:24;3.60;99.90
31046;DHT22;17711;54.018;9.300;2023-01-19T03:22:59;3.60;99.90
31046;DHT22;17711;54.018;9.300;2023-01-19T03:25:33;3.60;99.90
31046;DHT22;17711;54.018;9.300;2023-01-19T03:28:03;3.60;99.90
31046;DHT22;17711;54.018;9.300;2023-01-19T03:30:35;3.60;99.90
31046;DHT22;17711;54.018;9.300;2023-01-19T03:33:10;3.60;99.90
31046;DHT22;17711;54.018;9.300;2023-01-19T03:35:43;3.60;99.90
31046;DHT22;17711;54.018;9.300;2023-01-19T03:38:15;3.60;99.90
31046;DHT22;17711;54.018;9.300;2023-01-19T03:40:46;3.60;99.90
31046;DHT22;17711;54.018;9.300;2023-01-19T03:43:16;3.60;99.90
31046;DHT22;17711;54.018;9.300;2023-01-19T03:45:45;3.60;99.90
31046;DHT22;17711;54.018;9.300;2023-01-19T03:48:14;3.60;99.90
31046;DHT22;17711;54.018;9.300;2023-01-19T03:50:43;3.60;99.90
31046;DHT22;17711;54.018;9.300;2023-01-19T03:53:12;3.60;99.90
31046;DHT22;17711;54.018;9.300;2023-01-19T03:55:45;3.60;99.90
31046;DHT22;17711;54.018;9.300;2023-01-19T03:58:14;3.60;99.90
31046;DHT22;17711;54.018;9.300;2023-01-19T04:00:43;3.60;99.90
31046;DHT22;17711;54.018;9.300;2023-01-19T04:03:13;3.70;99.90
31046;DHT22;17711;54.018;9.300;2023-01-19T04:05:43;3.60;99.90
31046;DHT22;17711;54.018;9.300;2023-01-19T04:08:12;3.70;99.90
31046;DHT22;17711;54.018;9.300;2023-01-19T04:10:41;3.60;99.90
31046;DHT22;17711;54.018;9.300;2023-01-19T04:13:11;3.70;99.90
31046;DHT22;17711;54.018;9.300;2023-01-19T04:15:39;3.70;99.90
31046;DHT22;17711;54.018;9.300;2023-01-19T04:18:08;3.70;99.90
31046;DHT22;17711;54.018;9.300;2023-01-19T04:20:36;3.70;99.90
31046;DHT22;17711;54.018;9.300;2023-01-19T04:23:04;3.70;99.90
31046;DHT22;17711;54.018;9.300;2023-01-19T04:25:33;3.70;99.90
31046;DHT22;17711;54.018;9.300;2023-01-19T04:28:04;3.70;99.90
31046;DHT22;17711;54.018;9.300;2023-01-19T04:30:34;3.70;99.90
31046;DHT22;17711;54.018;9.300;2023-01-19T04:33:03;3.70;99.90
31046;DHT22;17711;54.018;9.300;2023-01-19T04:35:31;3.70;99.90
31046;DHT22;17711;54.018;9.300;2023-01-19T04:38:01;3.70;99.90
31046;DHT22;17711;54.018;9.300;2023-01-19T04:40:29;3.70;99.90
31046;DHT22;17711;54.018;9.300;2023-01-19T04:42:58;3.70;99.90
31046;DHT22;17711;54.018;9.300;2023-01-19T04:45:27;3.70;99.90
31046;DHT22;17711;54.018;9.300;2023-01-19T04:47:58;3.70;99.90
31046;DHT22;17711;54.018;9.300;2023-01-19T04:50:27;3.70;99.90
31046;DHT22;17711;54.018;9.300;2023-01-19T04:52:57;3.70;99.90
31046;DHT22;17711;54.018;9.300;2023-01-19T04:55:27;3.70;99.90
31046;DHT22;17711;54.018;9.300;2023-01-19T04:57:56;3.70;99.90
31046;DHT22;17711;54.018;9.300;2023-01-19T05:00:24;3.70;99.90
31046;DHT22;17711;54.018;9.300;2023-01-19T05:02:54;3.70;99.90
31046;DHT22;17711;54.018;9.300;2023-01-19T05:05:24;3.70;99.90
31046;DHT22;17711;54.018;9.300;2023-01-19T05:07:53;3.70;99.90
31046;DHT22;17711;54.018;9.300;2023-01-19T05:10:22;3.70;99.90
31046;DHT22;17711;54.018;9.300;2023-01-19T05:12:51;3.70;99.90
31046;DHT22;17711;54.018;9.300;2023-01-19T05:15:19;3.70;99.90
31046;DHT22;17711;54.018;9.300;2023-01-19T05:17:48;3.70;99.90
31046;DHT22;17711;54.018;9.300;2023-01-19T05:20:17;3.70;99.90
31046;DHT22;17711;54.018;9.300;2023-01-19T05:22:49;3.70;99.90
31046;DHT22;17711;54.018;9.300;2023-01-19T05:25:18;3.70;99.90
31046;DHT22;17711;54.018;9.300;2023-01-19T05:27:47;3.70;99.90
31046;DHT22;17711;54.018;9.300;2023-01-19T05:30:16;3.70;99.90
31046;DHT22;17711;54.018;9.300;2023-01-19T05:32:45;3.70;99.90
31046;DHT22;17711;54.018;9.300;2023-01-19T05:35:14;3.70;99.90
31046;DHT22;17711;54.018;9.300;2023-01-19T05:37:52;3.70;99.90
31046;DHT22;17711;54.018;9.300;2023-01-19T05:40:20;3.70;99.90
31046;DHT22;17711;54.018;9.300;2023-01-19T05:42:49;3.70;99.90
31046;DHT22;17711;54.018;9.300;2023-01-19T05:45:19;3.70;99.90
31046;DHT22;17711;54.018;9.300;2023-01-19T05:47:47;3.70;99.90
31046;DHT22;17711;54.018;9.300;2023-01-19T05:50:17;3.60;99.90
31046;DHT22;17711;54.018;9.300;2023-01-19T05:52:45;3.60;99.90
31046;DHT22;17711;54.018;9.300;2023-01-19T05:55:16;3.50;99.90
31046;DHT22;17711;54.018;9.300;2023-01-19T05:57:44;3.50;99.90
31046;DHT22;17711;54.018;9.300;2023-01-19T06:00:14;3.40;99.90
31046;DHT22;17711;54.018;9.300;2023-01-19T06:02:45;3.40;99.90
31046;DHT22;17711;54.018;9.300;2023-01-19T06:05:15;3.30;99.90
31046;DHT22;17711;54.018;9.300;2023-01-19T06:07:45;3.20;99.90
31046;DHT22;17711;54.018;9.300;2023-01-19T06:10:16;3.20;99.90
31046;DHT22;17711;54.018;9.300;2023-01-19T06:12:44;3.20;99.90
31046;DHT22;17711;54.018;9.300;2023-01-19T06:15:13;3.20;99.90
31046;DHT22;17711;54.018;9.300;2023-01-19T06:17:44;3.10;99.90
31046;DHT22;17711;54.018;9.300;2023-01-19T06:20:13;3.10;99.90
31046;DHT22;17711;54.018;9.300;2023-01-19T06:22:41;3.10;99.90
31046;DHT22;17711;54.018;9.300;2023-01-19T06:25:10;3.00;99.90
31046;DHT22;17711;54.018;9.300;2023-01-19T06:27:43;2.90;99.90
31046;DHT22;17711;54.018;9.300;2023-01-19T06:30:12;2.90;99.90
31046;DHT22;17711;54.018;9.300;2023-01-19T06:32:41;2.80;99.90
31046;DHT22;17711;54.018;9.300;2023-01-19T06:35:10;2.70;99.90
31046;DHT22;17711;54.018;9.300;2023-01-19T06:37:38;2.60;99.90
31046;DHT22;17711;54.018;9.300;2023-01-19T06:40:08;2.50;99.90
31046;DHT22;17711;54.018;9.300;2023-01-19T06:42:40;2.50;99.90
31046;DHT22;17711;54.018;9.300;2023-01-19T06:45:10;2.50;99.90
31046;DHT22;17711;54.018;9.300;2023-01-19T06:47:39;2.50;99.90
31046;DHT22;17711;54.018;9.300;2023-01-19T06:50:08;2.50;99.90
31046;DHT22;17711;54.018;9.300;2023-01-19T06:52:37;2.50;99.90
31046;DHT22;17711;54.018;9.300;2023-01-19T06:55:09;2.50;99.90
31046;DHT22;17711;54.018;9.300;2023-01-19T06:57:38;2.40;99.90
31046;DHT22;17711;54.018;9.300;2023-01-19T07:00:07;2.40;99.90
31046;DHT22;17711;54.018;9.300;2023-01-19T07:02:40;2.50;99.90
31046;DHT22;17711;54.018;9.300;2023-01-19T07:05:09;2.50;99.90
31046;DHT22;17711;54.018;9.300;2023-01-19T07:07:40;2.50;99.90
31046;DHT22;17711;54.018;9.300;2023-01-19T07:10:11;2.60;99.90
31046;DHT22;17711;54.018;9.300;2023-01-19T07:12:41;2.70;99.90
31046;DHT22;17711;54.018;9.300;2023-01-19T07:15:12;2.70;99.90
31046;DHT22;17711;54.018;9.300;2023-01-19T07:17:43;2.80;99.90
31046;DHT22;17711;54.018;9.300;2023-01-19T07:20:12;2.90;99.90
31046;DHT22;17711;54.018;9.300;2023-01-19T07:22:41;2.90;99.90
31046;DHT22;17711;54.018;9.300;2023-01-19T07:25:12;3.00;99.90
31046;DHT22;17711;54.018;9.300;2023-01-19T07:27:40;3.00;99.90
31046;DHT22;17711;54.018;9.300;2023-01-19T07:30:09;3.00;99.90
31046;DHT22;17711;54.018;9.300;2023-01-19T07:32:38;3.10;99.90
31046;DHT22;17711;54.018;9.300;2023-01-19T07:35:10;3.10;99.90
31046;DHT22;17711;54.018;9.300;2023-01-19T07:37:38;3.10;99.90
31046;DHT22;17711;54.018;9.300;2023-01-19T07:40:08;3.10;99.90
31046;DHT22;17711;54.018;9.300;2023-01-19T07:42:36;3.20;99.90
31046;DHT22;17711;54.018;9.300;2023-01-19T07:45:06;3.20;99.90
31046;DHT22;17711;54.018;9.300;2023-01-19T07:47:34;3.10;99.90
31046;DHT22;17711;54.018;9.300;2023-01-19T07:50:03;3.10;99.90
31046;DHT22;17711;54.018;9.300;2023-01-19T07:52:33;3.10;99.90
31046;DHT22;17711;54.018;9.300;2023-01-19T07:55:02;3.00;99.90
31046;DHT22;17711;54.018;9.300;2023-01-19T07:57:30;2.90;99.90
31046;DHT22;17711;54.018;9.300;2023-01-19T08:00:01;2.90;99.90
31046;DHT22;17711;54.018;9.300;2023-01-19T08:02:33;2.80;99.90
31046;DHT22;17711;54.018;9.300;2023-01-19T08:05:03;2.80;99.90
31046;DHT22;17711;54.018;9.300;2023-01-19T08:07:33;2.70;99.90
31046;DHT22;17711;54.018;9.300;2023-01-19T08:10:02;2.70;99.90
31046;DHT22;17711;54.018;9.300;2023-01-19T08:12:30;2.70;99.90
31046;DHT22;17711;54.018;9.300;2023-01-19T08:14:59;2.80;99.90
31046;DHT22;17711;54.018;9.300;2023-01-19T08:17:28;2.80;99.90
31046;DHT22;17711;54.018;9.300;2023-01-19T08:19:56;2.90;99.90
31046;DHT22;17711;54.018;9.300;2023-01-19T08:22:25;3.00;99.90
31046;DHT22;17711;54.018;9.300;2023-01-19T08:24:55;3.10;99.90
31046;DHT22;17711;54.018;9.300;2023-01-19T08:27:24;3.10;99.90
31046;DHT22;17711;54.018;9.300;2023-01-19T08:29:52;3.20;99.90
31046;DHT22;17711;54.018;9.300;2023-01-19T08:32:21;3.20;99.90
31046;DHT22;17711;54.018;9.300;2023-01-19T08:34:49;3.20;99.90
31046;DHT22;17711;54.018;9.300;2023-01-19T08:37:18;3.30;99.90
31046;DHT22;17711;54.018;9.300;2023-01-19T08:39:46;3.30;99.90
31046;DHT22;17711;54.018;9.300;2023-01-19T08:42:16;3.30;99.90
31046;DHT22;17711;54.018;9.300;2023-01-19T08:44:45;3.30;99.90
31046;DHT22;17711;54.018;9.300;2023-01-19T08:47:23;3.40;99.90
31046;DHT22;17711;54.018;9.300;2023-01-19T08:49:52;3.40;99.90
31046;DHT22;17711;54.018;9.300;2023-01-19T08:52:20;3.40;99.90
31046;DHT22;17711;54.018;9.300;2023-01-19T08:54:50;3.40;99.90
31046;DHT22;17711;54.018;9.300;2023-01-19T08:57:20;3.50;99.90
31046;DHT22;17711;54.018;9.300;2023-01-19T08:59:48;3.50;99.90
31046;DHT22;17711;54.018;9.300;2023-01-19T09:02:17;3.50;99.90
31046;DHT22;17711;54.018;9.300;2023-01-19T09:04:45;3.50;99.90
31046;DHT22;17711;54.018;9.300;2023-01-19T09:07:14;3.50;99.90
31046;DHT22;17711;54.018;9.300;2023-01-19T09:09:43;3.50;99.90
31046;DHT22;17711;54.018;9.300;2023-01-19T09:12:11;3.50;99.90
31046;DHT22;17711;54.018;9.300;2023-01-19T09:14:42;3.50;99.90
31046;DHT22;17711;54.018;9.300;2023-01-19T09:17:10;3.50;99.90
31046;DHT22;17711;54.018;9.300;2023-01-19T09:19:40;3.60;99.90
31046;DHT22;17711;54.018;9.300;2023-01-19T09:22:09;3.60;99.90
31046;DHT22;17711;54.018;9.300;2023-01-19T09:24:38;3.60;99.90
31046;DHT22;17711;54.018;9.300;2023-01-19T09:27:06;3.60;99.90
31046;DHT22;17711;54.018;9.300;2023-01-19T09:29:35;3.60;99.90
31046;DHT22;17711;54.018;9.300;2023-01-19T09:32:05;3.70;99.90
31046;DHT22;17711;54.018;9.300;2023-01-19T09:34:35;3.70;99.90
31046;DHT22;17711;54.018;9.300;2023-01-19T09:37:03;3.70;99.90
31046;DHT22;17711;54.018;9.300;2023-01-19T09:39:32;3.70;99.90
31046;DHT22;17711;54.018;9.300;2023-01-19T09:42:04;3.80;99.90
31046;DHT22;17711;54.018;9.300;2023-01-19T09:44:37;3.80;99.90
31046;DHT22;17711;54.018;9.300;2023-01-19T09:47:15;3.80;99.90
31046;DHT22;17711;54.018;9.300;2023-01-19T09:49:47;3.80;99.90
31046;DHT22;17711;54.018;9.300;2023-01-19T09:52:18;3.80;99.90
31046;DHT22;17711;54.018;9.300;2023-01-19T09:54:51;3.80;99.90
31046;DHT22;17711;54.018;9.300;2023-01-19T09:57:21;3.80;99.90
31046;DHT22;17711;54.018;9.300;2023-01-19T09:59:50;3.90;99.90
31046;DHT22;17711;54.018;9.300;2023-01-19T10:02:35;3.80;99.90
31046;DHT22;17711;54.018;9.300;2023-01-19T10:05:07;3.80;99.90
31046;DHT22;17711;54.018;9.300;2023-01-19T10:07:49;3.80;99.90
31046;DHT22;17711;54.018;9.300;2023-01-19T10:10:22;3.90;99.90
31046;DHT22;17711;54.018;9.300;2023-01-19T10:13:01;3.90;99.90
31046;DHT22;17711;54.018;9.300;2023-01-19T10:15:41;3.90;99.90
31046;DHT22;17711;54.018;9.300;2023-01-19T10:18:16;4.10;99.90
31046;DHT22;17711;54.018;9.300;2023-01-19T10:20:49;4.20;99.90
31046;DHT22;17711;54.018;9.300;2023-01-19T10:23:24;4.20;99.90
31046;DHT22;17711;54.018;9.300;2023-01-19T10:25:59;4.30;99.90
31046;DHT22;17711;54.018;9.300;2023-01-19T10:28:29;4.30;99.90
31046;DHT22;17711;54.018;9.300;2023-01-19T10:30:57;4.30;99.90
31046;DHT22;17711;54.018;9.300;2023-01-19T10:33:28;4.40;99.90
31046;DHT22;17711;54.018;9.300;2023-01-19T10:35:56;4.30;99.90
31046;DHT22;17711;54.018;9.300;2023-01-19T10:38:25;4.20;99.90
31046;DHT22;17711;54.018;9.300;2023-01-19T10:40:57;4.20;99.90
31046;DHT22;17711;54.018;9.300;2023-01-19T10:43:41;4.20;99.90
31046;DHT22;17711;54.018;9.300;2023-01-19T10:46:21;4.20;99.90
31046;DHT22;17711;54.018;9.300;2023-01-19T10:48:53;4.10;99.90
31046;DHT22;17711;54.018;9.300;2023-01-19T10:51:22;4.10;99.90
31046;DHT22;17711;54.018;9.300;2023-01-19T10:53:59;4.10;99.90
31046;DHT22;17711;54.018;9.300;2023-01-19T10:56:30;4.20;99.90
31046;DHT22;17711;54.018;9.300;2023-01-19T10:59:01;4.20;99.90
31046;DHT22;17711;54.018;9.300;2023-01-19T11:01:31;4.30;99.90
31046;DHT22;17711;54.018;9.300;2023-01-19T11:04:26;4.40;99.90
31046;DHT22;17711;54.018;9.300;2023-01-19T11:07:13;4.30;99.90
31046;DHT22;17711;54.018;9.300;2023-01-19T11:09:41;4.30;99.90
31046;DHT22;17711;54.018;9.300;2023-01-19T11:12:20;4.20;99.90
31046;DHT22;17711;54.018;9.300;2023-01-19T11:14:50;4.20;99.90
31046;DHT22;17711;54.018;9.300;2023-01-19T11:17:22;4.20;99.90
31046;DHT22;17711;54.018;9.300;2023-01-19T11:19:58;4.20;99.90
31046;DHT22;17711;54.018;9.300;2023-01-19T11:22:29;4.30;99.90
31046;DHT22;17711;54.018;9.300;2023-01-19T11:25:00;4.30;99.90
31046;DHT22;17711;54.018;9.300;2023-01-19T11:27:30;4.30;99.90
31046;DHT22;17711;54.018;9.300;2023-01-19T11:30:03;4.20;99.90
31046;DHT22;17711;54.018;9.300;2023-01-19T11:32:35;4.30;99.90
31046;DHT22;17711;54.018;9.300;2023-01-19T11:35:33;4.40;99.90
31046;DHT22;17711;54.018;9.300;2023-01-19T11:38:20;4.50;99.90
31046;DHT22;17711;54.018;9.300;2023-01-19T11:40:57;4.60;99.90
31046;DHT22;17711;54.018;9.300;2023-01-19T11:43:28;4.60;99.90
31046;DHT22;17711;54.018;9.300;2023-01-19T11:46:14;4.60;99.90
31046;DHT22;17711;54.018;9.300;2023-01-19T11:48:46;4.60;99.90
31046;DHT22;17711;54.018;9.300;2023-01-19T11:51:21;4.60;99.90
31046;DHT22;17711;54.018;9.300;2023-01-19T11:53:51;4.50;99.90
31046;DHT22;17711;54.018;9.300;2023-01-19T11:56:23;4.50;99.90
31046;DHT22;17711;54.018;9.300;2023-01-19T11:58:54;4.40;99.90
31046;DHT22;17711;54.018;9.300;2023-01-19T12:01:24;4.40;99.90
31046;DHT22;17711;54.018;9.300;2023-01-19T12:03:58;4.40;99.90
31046;DHT22;17711;54.018;9.300;2023-01-19T12:06:31;4.30;99.90
31046;DHT22;17711;54.018;9.300;2023-01-19T12:09:04;4.20;99.90
31046;DHT22;17711;54.018;9.300;2023-01-19T12:11:37;4.20;99.90
31046;DHT22;17711;54.018;9.300;2023-01-19T12:14:15;4.30;99.90
31046;DHT22;17711;54.018;9.300;2023-01-19T12:16:45;4.50;99.90
31046;DHT22;17711;54.018;9.300;2023-01-19T12:19:17;4.60;99.90
31046;DHT22;17711;54.018;9.300;2023-01-19T12:21:48;4.70;99.90
31046;DHT22;17711;54.018;9.300;2023-01-19T12:24:27;4.60;99.90
31046;DHT22;17711;54.018;9.300;2023-01-19T12:26:57;4.60;99.90
31046;DHT22;17711;54.018;9.300;2023-01-19T12:29:29;4.60;99.90
31046;DHT22;17711;54.018;9.300;2023-01-19T12:32:32;4.50;99.90
31046;DHT22;17711;54.018;9.300;2023-01-19T12:35:01;4.40;99.90
31046;DHT22;17711;54.018;9.300;2023-01-19T12:37:42;4.40;99.90
31046;DHT22;17711;54.018;9.300;2023-01-19T12:40:25;4.40;99.90
31046;DHT22;17711;54.018;9.300;2023-01-19T12:42:58;4.50;99.90
31046;DHT22;17711;54.018;9.300;2023-01-19T12:45:31;4.40;99.90
31046;DHT22;17711;54.018;9.300;2023-01-19T12:48:01;4.50;99.90
31046;DHT22;17711;54.018;9.300;2023-01-19T12:50:33;4.50;99.90
31046;DHT22;17711;54.018;9.300;2023-01-19T12:53:15;4.60;99.90
31046;DHT22;17711;54.018;9.300;2023-01-19T12:55:45;4.60;99.90
31046;DHT22;17711;54.018;9.300;2023-01-19T12:58:24;4.70;99.90
31046;DHT22;17711;54.018;9.300;2023-01-19T13:01:11;4.90;99.90
31046;DHT22;17711;54.018;9.300;2023-01-19T13:03:45;5.00;99.90
31046;DHT22;17711;54.018;9.300;2023-01-19T13:07:04;5.10;99.90
31046;DHT22;17711;54.018;9.300;2023-01-19T13:09:38;5.20;99.90
31046;DHT22;17711;54.018;9.300;2023-01-19T13:12:20;5.40;99.90
31046;DHT22;17711;54.018;9.300;2023-01-19T13:14:49;5.50;99.90
31046;DHT22;17711;54.018;9.300;2023-01-19T13:17:29;5.60;99.90
31046;DHT22;17711;54.018;9.300;2023-01-19T13:20:17;5.60;99.90
31046;DHT22;17711;54.018;9.300;2023-01-19T13:25:53;5.60;99.90
31046;DHT22;17711;54.018;9.300;2023-01-19T13:28:32;5.60;99.90
31046;DHT22;17711;54.018;9.300;2023-01-19T13:31:02;5.60;99.90
31046;DHT22;17711;54.018;9.300;2023-01-19T13:33:45;5.60;99.90
31046;DHT22;17711;54.018;9.300;2023-01-19T13:36:22;5.70;99.90
31046;DHT22;17711;54.018;9.300;2023-01-19T13:38:53;5.60;99.90
31046;DHT22;17711;54.018;9.300;2023-01-19T13:41:24;5.60;99.90
31046;DHT22;17711;54.018;9.300;2023-01-19T13:43:59;5.70;99.90
31046;DHT22;17711;54.018;9.300;2023-01-19T13:46:29;5.60;99.90
31046;DHT22;17711;54.018;9.300;2023-01-19T13:49:02;5.60;99.90
31046;DHT22;17711;54.018;9.300;2023-01-19T13:51:31;5.60;99.90
31046;DHT22;17711;54.018;9.300;2023-01-19T13:53:59;5.70;99.90
31046;DHT22;17711;54.018;9.300;2023-01-19T13:56:30;5.80;99.90
31046;DHT22;17711;54.018;9.300;2023-01-19T13:59:05;5.90;99.90
31046;DHT22;17711;54.018;9.300;2023-01-19T14:01:40;5.80;99.90
31046;DHT22;17711;54.018;9.300;2023-01-19T14:04:30;5.80;99.90
31046;DHT22;17711;54.018;9.300;2023-01-19T14:07:01;5.80;99.90
31046;DHT22;17711;54.018;9.300;2023-01-19T14:09:30;5.80;99.90
31046;DHT22;17711;54.018;9.300;2023-01-19T14:12:14;5.90;99.90
31046;DHT22;17711;54.018;9.300;2023-01-19T14:14:45;5.90;99.90
31046;DHT22;17711;54.018;9.300;2023-01-19T14:17:23;5.90;99.90
31046;DHT22;17711;54.018;9.300;2023-01-19T14:19:53;5.80;99.90
31046;DHT22;17711;54.018;9.300;2023-01-19T14:22:39;5.80;99.90
31046;DHT22;17711;54.018;9.300;2023-01-19T14:25:28;5.60;99.90
31046;DHT22;17711;54.018;9.300;2023-01-19T14:28:27;5.60;99.90
31046;DHT22;17711;54.018;9.300;2023-01-19T14:30:57;5.60;99.90
31046;DHT22;17711;54.018;9.300;2023-01-19T14:33:34;5.60;99.90
31046;DHT22;17711;54.018;9.300;2023-01-19T14:36:17;5.60;99.90
31046;DHT22;17711;54.018;9.300;2023-01-19T14:38:51;5.50;99.90
31046;DHT22;17711;54.018;9.300;2023-01-19T14:41:25;5.50;99.90
31046;DHT22;17711;54.018;9.300;2023-01-19T14:43:56;5.50;99.90
31046;DHT22;17711;54.018;9.300;2023-01-19T14:46:26;5.40;99.90
31046;DHT22;17711;54.018;9.300;2023-01-19T14:49:02;5.30;99.90
31046;DHT22;17711;54.018;9.300;2023-01-19T14:51:32;5.30;99.90
31046;DHT22;17711;54.018;9.300;2023-01-19T14:54:01;5.20;99.90
31046;DHT22;17711;54.018;9.300;2023-01-19T14:56:32;5.20;99.90
31046;DHT22;17711;54.018;9.300;2023-01-19T14:59:08;5.10;99.90
31046;DHT22;17711;54.018;9.300;2023-01-19T15:01:37;5.20;99.90
31046;DHT22;17711;54.018;9.300;2023-01-19T15:04:06;5.20;99.90
31046;DHT22;17711;54.018;9.300;2023-01-19T15:06:38;5.20;99.90
31046;DHT22;17711;54.018;9.300;2023-01-19T15:09:15;5.20;99.90
31046;DHT22;17711;54.018;9.300;2023-01-19T15:11:49;5.20;99.90
31046;DHT22;17711;54.018;9.300;2023-01-19T15:14:22;5.10;99.90
31046;DHT22;17711;54.018;9.300;2023-01-19T15:16:50;5.00;99.90
31046;DHT22;17711;54.018;9.300;2023-01-19T15:19:19;4.80;99.90
31046;DHT22;17711;54.018;9.300;2023-01-19T15:21:50;4.70;99.90
31046;DHT22;17711;54.018;9.300;2023-01-19T15:24:26;4.60;99.90
31046;DHT22;17711;54.018;9.300;2023-01-19T15:27:09;4.60;99.90
31046;DHT22;17711;54.018;9.300;2023-01-19T15:29:42;4.50;99.90
31046;DHT22;17711;54.018;9.300;2023-01-19T15:32:15;4.40;99.90
31046;DHT22;17711;54.018;9.300;2023-01-19T15:34:45;4.30;99.90
31046;DHT22;17711;54.018;9.300;2023-01-19T15:37:16;4.20;99.90
31046;DHT22;17711;54.018;9.300;2023-01-19T15:39:45;4.20;99.90
31046;DHT22;17711;54.018;9.300;2023-01-19T15:42:17;4.10;99.90
31046;DHT22;17711;54.018;9.300;2023-01-19T15:44:50;4.00;99.90
31046;DHT22;17711;54.018;9.300;2023-01-19T15:47:20;4.00;99.90
31046;DHT22;17711;54.018;9.300;2023-01-19T15:49:55;3.90;99.90
31046;DHT22;17711;54.018;9.300;2023-01-19T15:52:24;3.80;99.90
31046;DHT22;17711;54.018;9.300;2023-01-19T15:54:55;3.70;99.90
31046;DHT22;17711;54.018;9.300;2023-01-19T15:57:25;3.70;99.90
31046;DHT22;17711;54.018;9.300;2023-01-19T15:59:57;3.60;99.90
31046;DHT22;17711;54.018;9.300;2023-01-19T16:02:27;3.60;99.90
31046;DHT22;17711;54.018;9.300;2023-01-19T16:04:57;3.50;99.90
31046;DHT22;17711;54.018;9.300;2023-01-19T16:07:32;3.50;99.90
31046;DHT22;17711;54.018;9.300;2023-01-19T16:10:02;3.50;99.90
31046;DHT22;17711;54.018;9.300;2023-01-19T16:12:38;3.40;99.90
31046;DHT22;17711;54.018;9.300;2023-01-19T16:15:13;3.30;99.90
31046;DHT22;17711;54.018;9.300;2023-01-19T16:17:44;3.40;99.90
31046;DHT22;17711;54.018;9.300;2023-01-19T16:20:14;3.30;99.90